createdAt,value
2022-12-12T00:02:02.904Z,3.30
2022-12-12T00:04:31.492Z,3.17
2022-12-12T00:07:00.079Z,2.90
2022-12-12T00:09:28.714Z,2.90
2022-12-12T00:11:57.227Z,2.93
2022-12-12T00:14:25.813Z,3.67
2022-12-12T00:16:55.313Z,3.10
2022-12-12T00:19:25.381Z,2.70
2022-12-12T00:21:53.965Z,2.90
2022-12-12T00:24:22.538Z,3.17
2022-12-12T00:26:51.148Z,3.23
2022-12-12T00:29:19.735Z,2.60
2022-12-12T00:31:48.342Z,2.70
2022-12-12T00:34:16.969Z,2.43
2022-12-12T00:36:46.894Z,2.43
2022-12-12T00:39:18.456Z,2.17
2022-12-12T00:41:47.420Z,2.30
2022-12-12T00:44:15.943Z,2.20
2022-12-12T00:46:44.522Z,2.30
2022-12-12T00:49:14.533Z,2.10
2022-12-12T00:51:43.071Z,1.90
2022-12-12T00:54:13.047Z,1.90
2022-12-12T00:56:42.157Z,2.00
2022-12-12T00:59:10.810Z,2.30
2022-12-12T01:01:39.397Z,2.50
2022-12-12T01:04:07.950Z,1.70
2022-12-12T01:06:36.595Z,2.10
2022-12-12T01:09:05.396Z,2.70
2022-12-12T01:11:35.336Z,2.50
2022-12-12T01:14:03.870Z,2.70
2022-12-12T01:16:33.330Z,2.60
2022-12-12T01:19:02.083Z,2.27
2022-12-12T01:21:30.666Z,2.77
2022-12-12T01:23:59.319Z,2.40
2022-12-12T01:26:28.358Z,2.70
2022-12-12T01:28:58.281Z,2.60
2022-12-12T01:31:26.874Z,2.67
2022-12-12T01:33:55.443Z,2.53
2022-12-12T01:36:25.370Z,2.13
2022-12-12T01:38:57.027Z,2.30
2022-12-12T01:41:25.920Z,2.50
2022-12-12T01:43:55.605Z,2.10
2022-12-12T01:46:37.398Z,2.30
2022-12-12T01:49:08.690Z,2.43
2022-12-12T01:51:38.355Z,1.83
2022-12-12T01:54:09.106Z,2.20
2022-12-12T01:56:38.310Z,2.00
2022-12-12T01:59:08.097Z,2.20
2022-12-12T02:01:38.738Z,2.20
2022-12-12T02:04:07.721Z,1.83
2022-12-12T02:06:36.345Z,1.70
2022-12-12T02:09:08.139Z,2.23
2022-12-12T02:11:39.781Z,1.90
2022-12-12T02:14:08.446Z,2.00
2022-12-12T02:16:44.567Z,2.00
2022-12-12T02:19:24.632Z,2.00
2022-12-12T02:21:54.937Z,2.10
2022-12-12T02:24:35.900Z,1.90
2022-12-12T02:27:12.596Z,2.33
2022-12-12T02:29:56.591Z,2.33
2022-12-12T02:32:29.204Z,2.13
2022-12-12T02:35:03.298Z,1.70
2022-12-12T02:37:34.287Z,2.20
2022-12-12T02:40:05.065Z,2.00
2022-12-12T02:42:38.415Z,2.00
2022-12-12T02:45:09.099Z,1.83
2022-12-12T02:47:41.181Z,1.93
2022-12-12T02:50:11.036Z,1.90
2022-12-12T02:52:39.637Z,2.10
2022-12-12T02:55:08.589Z,1.93
2022-12-12T02:57:37.151Z,2.00
2022-12-12T03:00:07.163Z,1.93
2022-12-12T03:02:47.924Z,1.80
2022-12-12T03:05:43.068Z,1.53
2022-12-12T03:08:18.391Z,1.70
2022-12-12T03:10:51.986Z,1.70
2022-12-12T03:13:25.013Z,1.57
2022-12-12T03:15:58.585Z,2.17
2022-12-12T03:18:30.613Z,1.80
2022-12-12T03:21:03.722Z,2.03
2022-12-12T03:23:35.283Z,1.90
2022-12-12T03:26:05.893Z,1.83
2022-12-12T03:28:36.555Z,2.10
2022-12-12T03:31:07.207Z,2.33
2022-12-12T03:33:39.457Z,2.10
2022-12-12T03:36:09.197Z,1.90
2022-12-12T03:38:39.998Z,2.33
2022-12-12T03:41:11.755Z,2.00
2022-12-12T03:43:42.188Z,2.17
2022-12-12T03:46:14.569Z,2.00
2022-12-12T03:48:45.509Z,2.07
2022-12-12T03:51:17.306Z,2.03
2022-12-12T03:53:49.445Z,2.20
2022-12-12T03:56:20.443Z,2.40
2022-12-12T03:58:52.913Z,2.50
2022-12-12T04:01:23.673Z,2.33
2022-12-12T04:03:56.481Z,1.83
2022-12-12T04:06:30.821Z,1.90
2022-12-12T04:09:18.606Z,1.80
2022-12-12T04:12:10.413Z,2.00
2022-12-12T04:14:58.082Z,2.60
2022-12-12T04:17:31.202Z,1.87
2022-12-12T04:20:21.419Z,1.73
2022-12-12T04:23:17.764Z,1.80
2022-12-12T04:26:13.666Z,1.97
2022-12-12T04:28:45.647Z,2.27
2022-12-12T04:31:14.985Z,2.33
2022-12-12T04:33:45.377Z,2.10
2022-12-12T04:36:17.058Z,2.33
2022-12-12T04:38:46.503Z,2.50
2022-12-12T04:41:16.960Z,2.10
2022-12-12T04:43:47.661Z,2.37
2022-12-12T04:46:18.378Z,2.07
2022-12-12T04:48:51.806Z,2.30
2022-12-12T04:51:25.997Z,2.03
2022-12-12T04:53:56.769Z,1.80
2022-12-12T04:56:28.882Z,2.20
2022-12-12T04:58:58.008Z,2.03
2022-12-12T05:01:30.285Z,2.00
2022-12-12T05:04:00.143Z,2.60
2022-12-12T05:06:32.030Z,2.13
2022-12-12T05:09:00.910Z,2.13
2022-12-12T05:11:29.493Z,2.13
2022-12-12T05:13:58.060Z,1.77
2022-12-12T05:16:28.378Z,1.97
2022-12-12T05:18:57.037Z,1.70
2022-12-12T05:21:25.637Z,1.90
2022-12-12T05:23:55.632Z,1.60
2022-12-12T05:26:25.351Z,1.90
2022-12-12T05:28:54.031Z,1.83
2022-12-12T05:31:22.872Z,2.47
2022-12-12T05:33:51.737Z,2.00
2022-12-12T05:36:21.465Z,2.60
2022-12-12T05:38:50.071Z,1.90
2022-12-12T05:41:20.025Z,1.83
2022-12-12T05:43:48.626Z,2.33
2022-12-12T05:46:17.258Z,2.03
2022-12-12T05:48:50.420Z,1.97
2022-12-12T05:51:19.244Z,1.97
2022-12-12T05:53:48.271Z,2.40
2022-12-12T05:56:16.794Z,2.20
2022-12-12T05:58:46.772Z,2.60
2022-12-12T06:01:15.468Z,2.30
2022-12-12T06:03:44.190Z,2.47
2022-12-12T06:06:12.820Z,2.07
2022-12-12T06:08:41.467Z,2.00
2022-12-12T06:11:10.445Z,2.23
2022-12-12T06:13:39.490Z,1.90
2022-12-12T06:16:11.023Z,2.10
2022-12-12T06:18:39.622Z,2.20
2022-12-12T06:21:09.148Z,1.77
2022-12-12T06:23:38.225Z,1.90
2022-12-12T06:26:07.407Z,2.30
2022-12-12T06:28:36.278Z,2.03
2022-12-12T06:31:11.111Z,2.33
2022-12-12T06:33:42.017Z,2.07
2022-12-12T06:36:12.684Z,1.90
2022-12-12T06:38:42.241Z,1.90
2022-12-12T06:41:11.675Z,2.33
2022-12-12T06:43:40.576Z,2.40
2022-12-12T06:46:12.029Z,2.40
2022-12-12T06:48:42.059Z,2.30
2022-12-12T06:51:12.086Z,2.33
2022-12-12T06:53:40.672Z,2.73
2022-12-12T06:56:09.910Z,3.07
2022-12-12T06:58:38.928Z,3.10
2022-12-12T07:01:07.971Z,3.00
2022-12-12T07:03:36.664Z,4.63
2022-12-12T07:06:07.191Z,5.33
2022-12-12T07:08:36.184Z,7.13
2022-12-12T07:11:05.733Z,7.00
2022-12-12T07:13:34.490Z,6.03
2022-12-12T07:16:03.216Z,5.73
2022-12-12T07:18:31.858Z,4.77
2022-12-12T07:21:00.571Z,5.10
2022-12-12T07:23:30.527Z,3.87
2022-12-12T07:25:59.097Z,3.20
2022-12-12T07:28:27.693Z,3.00
2022-12-12T07:30:56.413Z,2.80
2022-12-12T07:33:29.747Z,3.30
2022-12-12T07:36:04.974Z,3.07
2022-12-12T07:38:35.035Z,2.73
2022-12-12T07:41:05.123Z,2.90
2022-12-12T07:43:36.223Z,2.83
2022-12-12T07:46:09.172Z,2.90
2022-12-12T07:48:38.227Z,3.13
2022-12-12T07:51:07.073Z,2.40
2022-12-12T07:53:37.114Z,2.50
2022-12-12T07:56:07.319Z,2.20
2022-12-12T07:58:35.970Z,2.20
2022-12-12T08:01:14.095Z,2.17
2022-12-12T08:03:43.306Z,2.20
2022-12-12T08:06:11.939Z,2.40
2022-12-12T08:08:41.882Z,2.20
2022-12-12T08:11:11.825Z,2.27
2022-12-12T08:13:41.667Z,2.10
2022-12-12T08:16:14.614Z,2.10
2022-12-12T08:18:43.495Z,1.77
2022-12-12T08:21:12.497Z,1.80
2022-12-12T08:23:42.763Z,1.70
2022-12-12T08:26:12.237Z,1.90
2022-12-12T08:28:41.832Z,1.50
2022-12-12T08:31:10.454Z,2.10
2022-12-12T08:33:39.027Z,2.10
2022-12-12T08:36:14.613Z,2.03
2022-12-12T08:38:44.553Z,1.90
2022-12-12T08:41:13.566Z,1.87
2022-12-12T08:43:43.117Z,2.00
2022-12-12T08:46:17.485Z,2.00
2022-12-12T08:48:47.226Z,1.90
2022-12-12T08:51:16.301Z,2.00
2022-12-12T08:53:46.773Z,2.10
2022-12-12T08:56:15.547Z,1.77
2022-12-12T08:58:44.304Z,1.80
2022-12-12T09:01:13.231Z,1.97
2022-12-12T09:03:41.770Z,1.70
2022-12-12T09:06:11.151Z,2.00
2022-12-12T09:08:39.732Z,2.00
2022-12-12T09:11:10.534Z,2.00
2022-12-12T09:13:39.292Z,1.97
2022-12-12T09:16:08.492Z,2.50
2022-12-12T09:18:37.435Z,2.70
2022-12-12T09:21:06.163Z,2.00
2022-12-12T09:23:34.755Z,2.50
2022-12-12T09:26:06.153Z,2.70
2022-12-12T09:28:36.334Z,2.83
2022-12-12T09:31:06.006Z,2.87
2022-12-12T09:33:34.654Z,2.90
2022-12-12T09:36:03.858Z,2.13
2022-12-12T09:38:32.428Z,2.70
2022-12-12T09:41:02.598Z,2.40
2022-12-12T09:43:33.303Z,2.50
2022-12-12T09:46:04.416Z,2.10
2022-12-12T09:48:37.659Z,1.83
2022-12-12T09:51:06.414Z,2.00
2022-12-12T09:53:35.427Z,2.20
2022-12-12T09:56:08.636Z,2.50
2022-12-12T09:58:47.342Z,2.17
2022-12-12T10:01:22.968Z,2.20
2022-12-12T10:03:55.751Z,2.50
2022-12-12T10:06:40.142Z,1.80
2022-12-12T10:09:14.226Z,1.77
2022-12-12T10:11:54.288Z,1.77
2022-12-12T10:14:27.034Z,2.07
2022-12-12T10:16:59.252Z,1.50
2022-12-12T10:19:29.591Z,1.60
2022-12-12T10:21:59.961Z,1.53
2022-12-12T10:24:31.644Z,1.67
2022-12-12T10:27:01.514Z,1.50
2022-12-12T10:29:30.106Z,1.57
2022-12-12T10:32:05.273Z,1.57
2022-12-12T10:34:41.736Z,1.47
2022-12-12T10:37:20.470Z,2.23
2022-12-12T10:39:55.735Z,1.60
2022-12-12T10:42:28.598Z,2.20
2022-12-12T10:45:03.471Z,1.30
2022-12-12T10:47:34.999Z,1.30
2022-12-12T10:50:12.975Z,2.20
2022-12-12T10:52:41.989Z,1.60
2022-12-12T10:55:18.946Z,1.67
2022-12-12T10:57:47.610Z,1.40
2022-12-12T11:00:26.879Z,1.27
2022-12-12T11:03:00.127Z,1.57
2022-12-12T11:05:30.693Z,1.57
2022-12-12T11:08:04.307Z,1.37
2022-12-12T11:10:34.769Z,1.37
2022-12-12T11:13:04.411Z,1.30
2022-12-12T11:15:39.666Z,1.40
2022-12-12T11:18:14.994Z,1.33
2022-12-12T11:20:48.159Z,1.30
2022-12-12T11:23:18.795Z,1.20
2022-12-12T11:25:48.014Z,1.30
2022-12-12T11:28:22.292Z,1.10
2022-12-12T11:30:52.554Z,1.10
2022-12-12T11:33:23.687Z,1.60
2022-12-12T11:35:55.970Z,1.30
2022-12-12T11:38:26.475Z,1.20
2022-12-12T11:41:00.226Z,0.97
2022-12-12T11:43:29.496Z,0.97
2022-12-12T11:46:02.227Z,1.13
2022-12-12T11:48:39.957Z,0.70
2022-12-12T11:51:08.691Z,0.70
2022-12-12T11:53:38.408Z,0.70
2022-12-12T11:56:27.702Z,0.77
2022-12-12T11:59:01.430Z,0.50
2022-12-12T12:01:33.945Z,0.60
2022-12-12T12:04:14.259Z,0.60
2022-12-12T12:06:47.321Z,0.70
2022-12-12T12:09:23.369Z,0.80
2022-12-12T12:11:57.250Z,1.07
2022-12-12T12:14:31.697Z,0.70
2022-12-12T12:17:05.946Z,0.70
2022-12-12T12:19:40.547Z,0.80
2022-12-12T12:22:15.669Z,0.70
2022-12-12T12:24:58.234Z,0.77
2022-12-12T12:27:30.962Z,0.60
2022-12-12T12:30:08.183Z,1.53
2022-12-12T12:32:43.849Z,0.87
2022-12-12T12:35:19.427Z,0.63
2022-12-12T12:37:56.597Z,0.50
2022-12-12T12:40:31.176Z,0.80
2022-12-12T12:43:05.362Z,0.73
2022-12-12T12:45:38.785Z,0.97
2022-12-12T12:48:13.552Z,0.70
2022-12-12T12:50:44.743Z,0.60
2022-12-12T12:53:19.938Z,0.63
2022-12-12T12:55:51.393Z,1.00
2022-12-12T12:58:21.228Z,0.60
2022-12-12T13:00:51.539Z,0.87
2022-12-12T13:03:21.614Z,0.70
2022-12-12T13:05:53.648Z,0.87
2022-12-12T13:08:26.509Z,0.70
2022-12-12T13:10:58.261Z,0.77
2022-12-12T13:13:29.262Z,1.10
2022-12-12T13:15:59.031Z,1.23
2022-12-12T13:18:33.451Z,1.23
2022-12-12T13:21:18.101Z,0.97
2022-12-12T13:23:54.679Z,1.17
2022-12-12T13:26:24.981Z,0.80
2022-12-12T13:28:55.716Z,1.00
2022-12-12T13:31:30.836Z,0.90
2022-12-12T13:34:02.854Z,0.93
2022-12-12T13:36:35.133Z,0.70
2022-12-12T13:39:05.206Z,1.10
2022-12-12T13:41:48.631Z,1.10
2022-12-12T13:44:34.060Z,1.03
2022-12-12T13:47:02.930Z,0.90
2022-12-12T13:49:34.166Z,0.90
2022-12-12T13:52:21.337Z,0.70
2022-12-12T13:54:51.904Z,0.80
2022-12-12T13:57:31.913Z,0.80
2022-12-12T14:00:24.789Z,0.80
2022-12-12T14:03:03.761Z,1.50
2022-12-12T14:05:34.416Z,0.77
2022-12-12T14:08:08.837Z,1.43
2022-12-12T14:10:41.297Z,0.80
2022-12-12T14:13:29.396Z,1.00
2022-12-12T14:16:03.580Z,1.50
2022-12-12T14:18:33.241Z,1.30
2022-12-12T14:21:03.486Z,2.10
2022-12-12T14:23:33.179Z,1.63
2022-12-12T14:26:03.807Z,1.83
2022-12-12T14:28:33.154Z,2.00
2022-12-12T14:31:15.395Z,2.03
2022-12-12T14:33:51.147Z,1.60
2022-12-12T14:36:33.361Z,1.73
2022-12-12T14:39:06.261Z,1.70
2022-12-12T14:41:37.359Z,1.80
2022-12-12T14:44:37.036Z,1.90
2022-12-12T14:46:59.478Z,1.60
2022-12-12T14:49:28.110Z,1.83
2022-12-12T14:51:57.890Z,1.83
2022-12-12T14:54:27.173Z,1.60
2022-12-12T14:56:59.511Z,2.10
2022-12-12T14:59:30.337Z,1.57
2022-12-12T15:01:59.894Z,2.03
2022-12-12T15:04:30.127Z,2.60
2022-12-12T15:06:59.107Z,2.50
2022-12-12T15:09:30.317Z,2.47
2022-12-12T15:12:13.901Z,2.70
2022-12-12T15:14:43.052Z,2.57
2022-12-12T15:17:18.040Z,2.53
2022-12-12T15:19:47.524Z,3.00
2022-12-12T15:22:19.723Z,3.10
2022-12-12T15:24:48.350Z,3.23
2022-12-12T15:27:21.377Z,3.17
2022-12-12T15:29:50.135Z,3.03
2022-12-12T15:32:19.855Z,2.87
2022-12-12T15:34:49.524Z,3.03
2022-12-12T15:37:22.572Z,3.37
2022-12-12T15:40:06.033Z,3.30
2022-12-12T15:42:36.085Z,3.63
2022-12-12T15:45:05.171Z,4.40
2022-12-12T15:47:33.876Z,4.07
2022-12-12T15:50:08.159Z,3.60
2022-12-12T15:52:36.913Z,3.70
2022-12-12T15:55:06.080Z,5.20
2022-12-12T15:57:45.982Z,4.23
2022-12-12T16:00:29.169Z,4.43
2022-12-12T16:03:01.668Z,4.13
2022-12-12T16:05:31.778Z,3.90
2022-12-12T16:08:18.856Z,4.00
2022-12-12T16:10:53.338Z,3.90
2022-12-12T16:13:27.243Z,3.77
2022-12-12T16:15:55.990Z,3.90
2022-12-12T16:18:25.639Z,4.40
2022-12-12T16:20:55.227Z,4.10
2022-12-12T16:23:25.119Z,3.97
2022-12-12T16:25:53.879Z,4.63
2022-12-12T16:28:25.901Z,4.47
2022-12-12T16:30:57.668Z,4.47
2022-12-12T16:33:29.427Z,3.47
2022-12-12T16:35:58.534Z,4.30
2022-12-12T16:38:27.310Z,3.80
2022-12-12T16:40:56.935Z,4.00
2022-12-12T16:43:25.737Z,3.03
2022-12-12T16:45:54.980Z,4.30
2022-12-12T16:48:25.985Z,3.60
2022-12-12T16:50:57.089Z,4.70
2022-12-12T16:53:25.652Z,6.23
2022-12-12T16:55:54.794Z,6.77
2022-12-12T16:58:23.409Z,6.90
2022-12-12T17:00:53.318Z,7.27
2022-12-12T17:03:23.338Z,6.10
2022-12-12T17:05:54.009Z,5.87
2022-12-12T17:08:23.194Z,6.30
2022-12-12T17:10:53.348Z,5.70
2022-12-12T17:13:39.832Z,5.40
2022-12-12T17:16:08.717Z,5.30
2022-12-12T17:18:37.338Z,5.00
2022-12-12T17:21:07.402Z,4.73
2022-12-12T17:23:35.963Z,4.00
2022-12-12T17:26:05.209Z,4.90
2022-12-12T17:28:34.506Z,4.93
2022-12-12T17:31:03.755Z,5.00
2022-12-12T17:33:32.368Z,4.83
2022-12-12T17:36:01.838Z,4.83
2022-12-12T17:38:31.730Z,4.83
2022-12-12T17:41:04.045Z,4.60
2022-12-12T17:43:32.620Z,4.07
2022-12-12T17:46:02.304Z,4.37
2022-12-12T17:48:31.322Z,4.53
2022-12-12T17:51:00.552Z,4.33
2022-12-12T17:53:32.115Z,4.00
2022-12-12T17:56:08.345Z,4.10
2022-12-12T17:58:37.831Z,3.77
2022-12-12T18:01:13.264Z,4.93
2022-12-12T18:03:42.071Z,4.77
2022-12-12T18:06:10.978Z,4.33
2022-12-12T18:08:39.910Z,4.70
2022-12-12T18:11:10.597Z,5.03
2022-12-12T18:13:40.066Z,5.10
2022-12-12T18:16:09.229Z,4.37
2022-12-12T18:18:38.211Z,4.20
2022-12-12T18:21:07.797Z,4.27
2022-12-12T18:23:36.892Z,4.10
2022-12-12T18:26:06.254Z,4.00
2022-12-12T18:28:36.370Z,4.30
2022-12-12T18:31:05.075Z,4.47
2022-12-12T18:33:33.862Z,3.97
2022-12-12T18:36:03.632Z,4.07
2022-12-12T18:38:32.295Z,3.90
2022-12-12T18:41:00.932Z,4.00
2022-12-12T18:43:30.062Z,3.97
2022-12-12T18:46:03.093Z,3.67
2022-12-12T18:48:31.782Z,3.50
2022-12-12T18:51:05.215Z,3.27
2022-12-12T18:53:33.825Z,3.43
2022-12-12T18:56:02.443Z,3.20
2022-12-12T18:58:30.970Z,3.27
2022-12-12T19:01:05.307Z,3.00
2022-12-12T19:03:33.955Z,3.13
2022-12-12T19:06:05.382Z,3.20
2022-12-12T19:08:34.002Z,2.93
2022-12-12T19:11:02.599Z,2.93
2022-12-12T19:13:31.878Z,3.10
2022-12-12T19:16:06.092Z,3.87
2022-12-12T19:18:34.758Z,3.20
2022-12-12T19:21:05.515Z,3.47
2022-12-12T19:23:34.476Z,3.47
2022-12-12T19:26:06.608Z,3.50
2022-12-12T19:28:35.479Z,3.47
2022-12-12T19:31:09.181Z,3.17
2022-12-12T19:33:38.040Z,3.27
2022-12-12T19:36:13.727Z,3.20
2022-12-12T19:38:42.591Z,3.20
2022-12-12T19:41:13.140Z,2.90
2022-12-12T19:43:42.091Z,3.23
2022-12-12T19:46:13.358Z,3.20
2022-12-12T19:48:42.064Z,3.03
2022-12-12T19:51:11.664Z,2.90
2022-12-12T19:53:40.997Z,2.90
2022-12-12T19:56:09.781Z,2.77
2022-12-12T19:58:38.994Z,3.00
2022-12-12T20:01:08.705Z,3.17
2022-12-12T20:03:39.095Z,2.73
2022-12-12T20:06:09.047Z,2.83
2022-12-12T20:08:38.511Z,3.30
2022-12-12T20:11:07.730Z,3.50
2022-12-12T20:13:36.261Z,3.60
2022-12-12T20:16:05.637Z,3.40
2022-12-12T20:18:34.238Z,3.47
2022-12-12T20:21:04.280Z,3.57
2022-12-12T20:23:33.605Z,3.23
2022-12-12T20:26:03.873Z,4.37
2022-12-12T20:28:32.579Z,3.97
2022-12-12T20:31:05.205Z,4.10
2022-12-12T20:33:34.151Z,3.60
2022-12-12T20:36:05.000Z,3.80
2022-12-12T20:38:34.233Z,3.30
2022-12-12T20:41:03.318Z,3.40
2022-12-12T20:43:31.893Z,3.70
2022-12-12T20:46:00.503Z,3.47
2022-12-12T20:48:29.079Z,3.10
2022-12-12T20:50:59.412Z,3.50
2022-12-12T20:53:34.819Z,4.10
2022-12-12T20:56:10.676Z,3.57
2022-12-12T20:58:39.917Z,4.00
2022-12-12T21:01:11.966Z,3.83
2022-12-12T21:03:40.902Z,4.00
2022-12-12T21:06:13.014Z,3.90
2022-12-12T21:08:43.216Z,3.97
2022-12-12T21:11:11.917Z,4.10
2022-12-12T21:13:40.632Z,4.07
2022-12-12T21:16:10.064Z,4.00
2022-12-12T21:18:38.800Z,3.77
2022-12-12T21:21:07.966Z,3.60
2022-12-12T21:23:36.603Z,3.20
2022-12-12T21:26:06.896Z,3.37
2022-12-12T21:28:35.513Z,3.67
2022-12-12T21:31:06.582Z,3.23
2022-12-12T21:33:35.829Z,3.63
2022-12-12T21:36:05.622Z,3.50
2022-12-12T21:38:34.259Z,3.50
2022-12-12T21:41:05.373Z,3.53
2022-12-12T21:43:35.321Z,3.90
2022-12-12T21:46:04.954Z,3.37
2022-12-12T21:48:33.891Z,3.33
2022-12-12T21:51:02.511Z,3.53
2022-12-12T21:53:37.929Z,3.77
2022-12-12T21:56:07.206Z,3.10
2022-12-12T21:58:37.747Z,3.30
2022-12-12T22:01:07.339Z,3.17
2022-12-12T22:03:36.156Z,2.90
2022-12-12T22:06:10.597Z,3.17
2022-12-12T22:08:39.195Z,3.13
2022-12-12T22:11:08.976Z,3.30
2022-12-12T22:13:40.279Z,2.90
2022-12-12T22:16:10.680Z,3.27
2022-12-12T22:18:39.542Z,3.07
2022-12-12T22:21:09.081Z,2.73
2022-12-12T22:23:38.131Z,2.90
2022-12-12T22:26:14.230Z,2.90
2022-12-12T22:28:44.181Z,2.80
2022-12-12T22:31:12.922Z,2.43
2022-12-12T22:33:41.541Z,2.47
2022-12-12T22:36:11.329Z,2.90
2022-12-12T22:38:39.901Z,2.50
2022-12-12T22:41:08.991Z,2.80
2022-12-12T22:43:37.591Z,2.77
2022-12-12T22:46:08.781Z,2.40
2022-12-12T22:48:37.443Z,2.73
2022-12-12T22:51:13.168Z,2.70
2022-12-12T22:53:44.395Z,2.60
2022-12-12T22:56:13.380Z,3.20
2022-12-12T22:58:41.997Z,3.53
2022-12-12T23:01:13.285Z,3.10
2022-12-12T23:03:42.008Z,3.13
2022-12-12T23:06:12.408Z,3.57
2022-12-12T23:08:41.159Z,3.50
2022-12-12T23:11:10.582Z,4.10
2022-12-12T23:13:39.233Z,3.50
2022-12-12T23:16:13.320Z,3.83
2022-12-12T23:18:42.403Z,3.30
2022-12-12T23:21:16.479Z,2.97
2022-12-12T23:23:46.037Z,3.10
2022-12-12T23:26:15.930Z,3.20
2022-12-12T23:28:44.942Z,3.43
2022-12-12T23:31:16.606Z,3.77
2022-12-12T23:33:45.251Z,3.70
2022-12-12T23:36:14.744Z,3.80
2022-12-12T23:38:43.475Z,3.93
2022-12-12T23:41:13.350Z,3.60
2022-12-12T23:43:42.211Z,3.50
2022-12-12T23:46:27.933Z,3.10
2022-12-12T23:48:58.869Z,3.03
2022-12-12T23:51:29.340Z,3.33
2022-12-12T23:53:57.981Z,3.00
2022-12-12T23:56:27.189Z,3.80
2022-12-12T23:58:55.861Z,3.60
